Time;durP1;ratioP1;P1;durP2;ratioP2;P2;SDS_P1;SDS_P2;PMS_P1;PMS_P2;Temp;Humidity;BMP_temperature;BMP_pressure;BME280_temperature;BME280_humidity;BME280_pressure;Samples;Min_cycle;Max_cycle;Signal;HPM_P1;HPM_P2
2021/05/17 00:02:03;;;;;;;10.18;6.43;;;11.60;99.90;;;;;;4751539;30;20222;-81
2021/05/17 00:04:33;;;;;;;9.25;6.82;;;11.50;99.90;;;;;;4751146;30;20684;-83
2021/05/17 00:07:02;;;;;;;13.80;7.10;;;11.50;99.90;;;;;;4752636;30;20194;-81
2021/05/17 00:09:29;;;;;;;11.23;7.03;;;11.50;99.90;;;;;;4751034;30;20201;-81
2021/05/17 00:11:55;;;;;;;10.65;7.18;;;11.50;99.90;;;;;;4751654;30;20294;-82
2021/05/17 00:14:23;;;;;;;13.77;7.43;;;11.40;99.90;;;;;;4751110;30;20225;-82
2021/05/17 00:16:50;;;;;;;12.68;7.55;;;11.40;99.90;;;;;;4751474;30;20190;-81
2021/05/17 00:19:16;;;;;;;12.25;6.90;;;11.40;99.90;;;;;;4750766;30;20384;-82
2021/05/17 00:21:43;;;;;;;13.60;6.90;;;11.40;99.90;;;;;;4752350;30;20309;-81
2021/05/17 00:24:11;;;;;;;12.60;7.20;;;11.40;99.90;;;;;;4751125;30;20199;-82
2021/05/17 00:26:37;;;;;;;11.80;7.03;;;11.40;99.90;;;;;;4751989;30;20194;-81
2021/05/17 00:29:03;;;;;;;17.17;8.70;;;11.30;99.90;;;;;;4751077;30;20199;-81
2021/05/17 00:31:30;;;;;;;25.02;10.70;;;11.30;99.90;;;;;;4752000;30;20273;-81
2021/05/17 00:33:56;;;;;;;19.43;11.03;;;11.40;99.90;;;;;;4735657;30;20232;-82
2021/05/17 00:36:23;;;;;;;22.53;10.33;;;11.40;99.90;;;;;;4752450;30;20183;-82
2021/05/17 00:38:49;;;;;;;17.23;9.60;;;11.40;99.90;;;;;;4752714;30;20179;-82
2021/05/17 00:41:15;;;;;;;15.87;9.53;;;11.40;99.90;;;;;;4751962;30;20248;-82
2021/05/17 00:43:41;;;;;;;15.00;8.52;;;11.50;99.90;;;;;;4752279;30;20524;-82
2021/05/17 00:46:10;;;;;;;14.10;8.18;;;11.40;99.90;;;;;;4755372;30;20198;-82
2021/05/17 00:48:38;;;;;;;13.07;7.63;;;11.40;99.90;;;;;;4755257;30;20226;-82
2021/05/17 00:51:06;;;;;;;23.55;11.55;;;11.40;99.90;;;;;;4754536;30;20187;-81
2021/05/17 00:53:33;;;;;;;31.38;14.13;;;11.40;99.90;;;;;;4755102;30;20203;-82
2021/05/17 00:55:59;;;;;;;25.30;13.20;;;11.40;99.90;;;;;;4755814;30;20187;-82
2021/05/17 00:58:25;;;;;;;26.15;13.10;;;11.30;99.90;;;;;;4754877;30;20183;-81
2021/05/17 01:00:51;;;;;;;27.90;14.45;;;11.30;99.90;;;;;;4755049;30;20190;-82
2021/05/17 01:03:17;;;;;;;29.10;15.27;;;11.20;99.90;;;;;;4739186;30;20230;-82
2021/05/17 01:05:43;;;;;;;27.80;15.30;;;11.20;99.90;;;;;;4754162;30;20222;-81
2021/05/17 01:08:13;;;;;;;27.03;15.93;;;11.10;99.90;;;;;;4753912;30;20205;-82
2021/05/17 01:10:43;;;;;;;32.50;17.47;;;11.10;99.90;;;;;;4753692;30;20225;-82
2021/05/17 01:13:10;;;;;;;28.53;15.90;;;11.10;99.90;;;;;;4755161;30;20196;-82
2021/05/17 01:15:37;;;;;;;38.23;17.37;;;11.10;99.90;;;;;;4754621;30;20282;-82
2021/05/17 01:18:04;;;;;;;30.53;17.53;;;11.10;99.90;;;;;;4753409;30;20243;-82
2021/05/17 01:20:33;;;;;;;31.90;17.27;;;11.10;99.90;;;;;;4754565;30;20182;-83
2021/05/17 01:25:50;;;;;;;33.57;18.00;;;11.00;99.90;;;;;;4754837;30;20185;-83
2021/05/17 01:28:21;;;;;;;31.50;17.50;;;10.40;99.90;;;;;;4755316;30;20311;-82
2021/05/17 01:30:49;;;;;;;33.33;18.23;;;10.80;99.90;;;;;;4757878;30;20198;-81
2021/05/17 01:33:15;;;;;;;37.37;19.10;;;10.90;99.90;;;;;;4756554;30;20680;-83
2021/05/17 01:35:41;;;;;;;37.97;18.07;;;10.80;99.90;;;;;;4753676;30;20197;-82
2021/05/17 01:38:08;;;;;;;40.17;20.20;;;10.80;99.90;;;;;;4753365;30;20213;-82
2021/05/17 01:40:37;;;;;;;39.28;20.15;;;10.80;99.90;;;;;;4753112;30;20199;-80
2021/05/17 01:43:04;;;;;;;38.50;19.45;;;10.30;99.90;;;;;;4753023;30;20245;-83
2021/05/17 01:45:30;;;;;;;38.93;19.03;;;10.80;99.90;;;;;;4753221;30;20191;-83
2021/05/17 01:47:58;;;;;;;40.40;19.30;;;10.80;99.90;;;;;;4754814;30;20194;-83
2021/05/17 01:50:25;;;;;;;38.73;19.50;;;10.90;99.90;;;;;;4753359;30;20183;-84
2021/05/17 01:52:52;;;;;;;37.13;18.57;;;10.90;99.90;;;;;;4753851;30;20240;-83
2021/05/17 01:55:18;;;;;;;37.70;20.27;;;10.90;99.90;;;;;;4753443;30;20194;-82
2021/05/17 01:57:44;;;;;;;38.73;21.03;;;10.90;99.90;;;;;;4753824;30;20550;-82
2021/05/17 02:00:13;;;;;;;44.60;20.23;;;10.80;99.90;;;;;;4754287;30;20267;-82
2021/05/17 02:02:39;;;;;;;39.40;20.90;;;10.80;99.90;;;;;;4753984;30;20219;-82
2021/05/17 02:05:06;;;;;;;34.97;19.73;;;10.80;99.90;;;;;;4738654;30;20195;-83
2021/05/17 02:07:32;;;;;;;37.87;19.97;;;10.70;99.90;;;;;;4752661;30;20264;-83
2021/05/17 02:09:59;;;;;;;34.57;19.63;;;10.80;99.90;;;;;;4754189;30;20625;-82
2021/05/17 02:12:26;;;;;;;36.37;19.57;;;10.80;99.90;;;;;;4754490;30;20597;-82
2021/05/17 02:14:55;;;;;;;48.63;21.37;;;10.80;99.90;;;;;;4753274;30;20210;-82
2021/05/17 02:17:23;;;;;;;36.00;20.27;;;10.90;99.90;;;;;;4754662;30;20259;-82
2021/05/17 02:19:49;;;;;;;35.73;19.50;;;10.90;99.90;;;;;;4772847;30;20252;-82
2021/05/17 02:22:20;;;;;;;36.53;18.63;;;10.80;99.90;;;;;;4773483;30;20301;-82
2021/05/17 02:24:46;;;;;;;38.28;19.42;;;10.80;99.90;;;;;;4756447;30;20197;-82
2021/05/17 02:27:16;;;;;;;36.67;19.97;;;10.80;99.90;;;;;;4741154;30;20198;-82
2021/05/17 02:29:44;;;;;;;37.20;20.63;;;10.80;99.90;;;;;;4740533;30;20190;-83
2021/05/17 02:32:17;;;;;;;32.47;19.47;;;10.80;99.90;;;;;;4755912;30;20190;-82
2021/05/17 02:34:43;;;;;;;35.00;19.40;;;10.80;99.90;;;;;;4771481;30;20190;-82
2021/05/17 02:37:10;;;;;;;33.87;18.57;;;10.80;99.90;;;;;;4772113;30;20186;-83
2021/05/17 02:39:36;;;;;;;31.10;18.50;;;10.80;99.90;;;;;;4757283;30;20251;-82
2021/05/17 02:42:01;;;;;;;34.17;19.47;;;10.80;99.90;;;;;;4756368;30;20209;-82
2021/05/17 02:44:27;;;;;;;35.50;19.53;;;;;;;;;;4755427;30;20214;-82
2021/05/17 02:46:56;;;;;;;29.00;17.53;;;10.80;99.90;;;;;;4771175;30;20192;-82
2021/05/17 02:49:22;;;;;;;31.52;19.20;;;10.80;99.90;;;;;;4740733;30;20646;-82
2021/05/17 02:51:51;;;;;;;32.30;18.53;;;10.80;99.90;;;;;;4755108;30;20198;-82
2021/05/17 02:54:32;;;;;;;35.13;18.87;;;10.90;99.90;;;;;;4771025;30;20186;-81
2021/05/17 02:56:58;;;;;;;32.58;19.02;;;10.90;99.90;;;;;;4755287;30;20196;-82
2021/05/17 03:00:00;;;;;;;32.10;19.47;;;10.90;99.90;;;;;;4771291;30;20182;-82
2021/05/17 03:02:31;;;;;;;32.10;18.53;;;10.90;99.90;;;;;;4754995;30;20225;-81
2021/05/17 03:04:58;;;;;;;31.07;17.77;;;10.90;99.90;;;;;;4755021;30;20663;-82
2021/05/17 03:07:33;;;;;;;31.23;17.83;;;10.80;99.90;;;;;;4770528;30;20178;-82
2021/05/17 03:10:01;;;;;;;29.93;17.53;;;10.80;99.90;;;;;;4754792;30;20285;-81
2021/05/17 03:12:29;;;;;;;30.80;18.93;;;10.80;99.90;;;;;;4754402;30;20663;-82
2021/05/17 03:14:57;;;;;;;30.53;19.00;;;10.80;99.90;;;;;;4770505;30;20186;-82
2021/05/17 03:17:25;;;;;;;30.20;18.57;;;10.80;99.90;;;;;;4770567;30;20805;-81
2021/05/17 03:19:51;;;;;;;30.50;17.60;;;10.80;99.90;;;;;;4751481;30;20665;-83
2021/05/17 03:22:17;;;;;;;29.03;18.70;;;10.80;99.90;;;;;;4737039;30;20232;-82
2021/05/17 03:24:45;;;;;;;27.70;18.03;;;10.80;99.90;;;;;;4751399;30;20202;-82
2021/05/17 03:27:26;;;;;;;33.97;17.83;;;10.80;99.90;;;;;;4751827;30;20235;-82
2021/05/17 03:29:52;;;;;;;30.13;19.30;;;10.80;99.90;;;;;;4752502;30;20194;-82
2021/05/17 03:32:19;;;;;;;37.30;20.70;;;10.80;99.90;;;;;;4737286;30;20218;-81
2021/05/17 03:34:45;;;;;;;34.20;21.10;;;10.70;99.90;;;;;;4751484;30;20187;-82
2021/05/17 03:37:11;;;;;;;37.60;21.10;;;10.70;99.90;;;;;;4752939;30;20641;-83
2021/05/17 03:39:37;;;;;;;37.03;20.43;;;10.60;99.90;;;;;;4751322;30;20197;-82
2021/05/17 03:42:03;;;;;;;37.43;19.50;;;;;;;;;;4752495;30;20222;-82
2021/05/17 03:44:29;;;;;;;34.60;19.53;;;10.50;99.90;;;;;;4746882;30;20781;-82
2021/05/17 03:46:56;;;;;;;31.03;17.97;;;10.60;99.90;;;;;;4746818;30;20201;-82
2021/05/17 03:49:22;;;;;;;35.60;19.80;;;10.60;99.90;;;;;;4734001;30;20202;-82
2021/05/17 03:51:49;;;;;;;35.93;18.83;;;10.70;99.90;;;;;;4748355;30;20208;-80
2021/05/17 03:54:14;;;;;;;33.53;19.40;;;10.70;99.90;;;;;;4731973;30;20573;-82
2021/05/17 03:56:40;;;;;;;38.30;19.70;;;10.70;99.90;;;;;;4749765;30;20323;-83
2021/05/17 03:59:06;;;;;;;38.03;20.33;;;10.80;99.90;;;;;;4748830;30;20616;-81
2021/05/17 04:01:31;;;;;;;30.80;18.53;;;10.70;99.90;;;;;;4748950;30;20206;-83
2021/05/17 04:03:58;;;;;;;34.23;19.30;;;;;;;;;;4733947;30;20263;-82
2021/05/17 04:14:53;;;;;;;35.73;16.97;;;10.80;99.90;;;;;;4750774;30;20564;-83
2021/05/17 04:17:19;;;;;;;29.73;16.50;;;10.80;99.90;;;;;;4754421;30;20262;-83
2021/05/17 04:19:45;;;;;;;29.37;16.40;;;10.80;99.90;;;;;;4780090;30;20246;-83
2021/05/17 04:22:11;;;;;;;29.02;16.98;;;10.80;99.90;;;;;;4754300;30;20364;-82
2021/05/17 04:24:36;;;;;;;37.65;17.73;;;10.80;99.90;;;;;;4781693;30;20221;-83
2021/05/17 04:27:02;;;;;;;31.87;17.80;;;10.70;99.90;;;;;;4790105;30;20220;-84
2021/05/17 04:29:28;;;;;;;30.20;17.67;;;10.60;99.90;;;;;;4771679;30;20229;-83
2021/05/17 04:31:54;;;;;;;33.27;18.63;;;;;;;;;;4771536;30;20217;-83
2021/05/17 04:34:20;;;;;;;39.47;18.53;;;10.50;99.90;;;;;;4757272;30;20202;-83
2021/05/17 04:36:45;;;;;;;34.17;18.13;;;10.70;99.90;;;;;;4741630;30;20319;-83
2021/05/17 04:39:11;;;;;;;38.40;19.00;;;10.60;99.90;;;;;;4768548;30;20204;-83
2021/05/17 04:41:37;;;;;;;34.43;19.10;;;10.60;99.90;;;;;;4768047;30;20194;-83
2021/05/17 04:44:03;;;;;;;32.40;19.30;;;10.70;99.90;;;;;;4768631;30;20311;-83
2021/05/17 04:46:29;;;;;;;34.43;18.97;;;10.80;99.90;;;;;;4733048;30;20195;-83
2021/05/17 04:48:55;;;;;;;30.70;17.38;;;10.80;99.90;;;;;;4727168;30;20651;-83
2021/05/17 04:51:24;;;;;;;28.30;16.53;;;10.80;99.90;;;;;;4767612;30;20226;-82
2021/05/17 04:53:51;;;;;;;27.03;16.50;;;10.80;99.90;;;;;;4768115;30;20202;-82
2021/05/17 04:56:18;;;;;;;31.83;17.90;;;10.80;99.90;;;;;;4751667;30;20214;-82
2021/05/17 04:58:44;;;;;;;34.37;19.47;;;10.80;99.90;;;;;;4751647;30;20198;-83
2021/05/17 05:01:10;;;;;;;29.77;17.67;;;10.90;99.90;;;;;;4768558;30;20201;-84
2021/05/17 05:03:36;;;;;;;33.43;18.77;;;;;;;;;;4762633;30;20300;-82
2021/05/17 05:06:02;;;;;;;30.57;17.57;;;10.90;99.90;;;;;;4742742;30;20648;-83
2021/05/17 05:08:28;;;;;;;29.73;17.60;;;10.90;99.90;;;;;;4754842;30;20255;-83
2021/05/17 05:10:54;;;;;;;30.60;18.50;;;10.90;99.90;;;;;;4755453;30;20202;-82
2021/05/17 05:13:20;;;;;;;33.97;18.17;;;;;;;;;;4754927;30;20279;-82
2021/05/17 05:15:51;;;;;;;33.60;18.07;;;11.00;99.90;;;;;;4767211;30;20202;-81
2021/05/17 05:18:17;;;;;;;35.07;19.57;;;11.10;99.90;;;;;;4769829;30;20337;-82
2021/05/17 05:20:43;;;;;;;37.20;18.60;;;11.10;99.90;;;;;;4754887;30;20703;-83
2021/05/17 05:23:12;;;;;;;33.77;18.93;;;11.10;99.90;;;;;;4740371;30;20287;-83
2021/05/17 05:31:30;;;;;;;33.53;18.67;;;11.20;99.90;;;;;;4771633;30;20671;-83
2021/05/17 05:33:56;;;;;;;30.35;17.00;;;11.40;99.90;;;;;;4758293;30;20220;-83
2021/05/17 05:36:22;;;;;;;34.50;17.47;;;11.50;99.90;;;;;;4741442;30;20670;-84
2021/05/17 05:38:47;;;;;;;30.30;17.65;;;11.50;99.90;;;;;;4771856;30;20215;-84
2021/05/17 05:41:13;;;;;;;26.77;16.67;;;11.40;99.90;;;;;;4756014;30;20717;-84
2021/05/17 05:43:39;;;;;;;30.07;16.40;;;;;;;;;;4771676;30;20293;-83
2021/05/17 05:46:05;;;;;;;30.13;16.33;;;11.20;99.90;;;;;;4756135;30;20252;-84
2021/05/17 05:48:31;;;;;;;32.73;17.40;;;11.10;99.90;;;;;;4771587;30;20182;-84
2021/05/17 05:50:56;;;;;;;32.20;17.77;;;11.10;99.90;;;;;;4741065;30;20194;-83
2021/05/17 05:53:23;;;;;;;32.10;18.90;;;;;;;;;;4755617;30;20194;-85
2021/05/17 05:55:48;;;;;;;33.40;19.35;;;11.30;99.90;;;;;;4755636;30;20193;-85
2021/05/17 05:58:15;;;;;;;30.80;18.95;;;11.40;99.90;;;;;;4755590;30;20557;-84
2021/05/17 06:00:42;;;;;;;32.63;19.33;;;11.60;99.90;;;;;;4771495;30;20185;-82
2021/05/17 06:03:07;;;;;;;31.67;19.10;;;11.70;99.90;;;;;;4755390;30;20214;-84
2021/05/17 06:05:33;;;;;;;32.83;18.83;;;11.70;99.90;;;;;;4755217;30;20198;-83
2021/05/17 06:08:01;;;;;;;31.67;18.88;;;;;;;;;;4755251;30;20208;-82
2021/05/17 06:10:27;;;;;;;27.75;17.67;;;11.90;99.90;;;;;;4771287;30;20261;-83
2021/05/17 06:12:55;;;;;;;27.95;17.13;;;12.10;99.90;;;;;;4771322;30;20189;-82
2021/05/17 06:15:22;;;;;;;28.45;18.15;;;12.20;99.90;;;;;;4755467;30;20189;-83
2021/05/17 06:17:48;;;;;;;26.80;18.13;;;12.50;99.90;;;;;;4754662;30;20241;-84
2021/05/17 06:20:15;;;;;;;25.25;16.58;;;12.60;99.90;;;;;;4755443;30;20281;-83
2021/05/17 06:22:41;;;;;;;22.95;16.58;;;12.70;99.90;;;;;;4755225;30;20229;-83
2021/05/17 06:25:09;;;;;;;25.10;17.23;;;12.70;99.90;;;;;;4754921;30;20197;-84
2021/05/17 06:27:36;;;;;;;28.95;18.38;;;12.70;99.90;;;;;;4754934;30;20186;-83
2021/05/17 06:30:03;;;;;;;25.83;18.45;;;12.90;99.90;;;;;;4755005;30;20293;-83
2021/05/17 06:32:31;;;;;;;28.67;18.60;;;13.00;99.90;;;;;;4754659;30;20190;-84
2021/05/17 06:34:58;;;;;;;25.55;17.98;;;13.10;99.90;;;;;;4755272;30;20178;-84
2021/05/17 06:37:24;;;;;;;27.10;17.60;;;13.20;99.90;;;;;;4754639;30;20250;-83
2021/05/17 06:39:49;;;;;;;25.38;17.98;;;13.20;99.90;;;;;;4755077;30;20608;-84
2021/05/17 06:42:16;;;;;;;26.98;18.30;;;13.20;99.90;;;;;;4740157;30;20218;-88
2021/05/17 06:44:42;;;;;;;26.45;17.23;;;13.20;99.90;;;;;;4755134;30;20214;-86
2021/05/17 06:47:10;;;;;;;27.00;16.90;;;13.40;99.90;;;;;;4753988;30;20202;-86
2021/05/17 06:49:36;;;;;;;24.48;16.85;;;13.60;99.90;;;;;;4755729;30;20220;-86
2021/05/17 06:52:03;;;;;;;26.10;18.13;;;13.40;99.90;;;;;;4773020;30;20185;-84
2021/05/17 06:54:29;;;;;;;24.90;17.25;;;13.60;99.90;;;;;;4755091;30;20186;-87
2021/05/17 06:59:43;;;;;;;19.98;14.95;;;13.90;99.90;;;;;;4769110;30;20189;-85
2021/05/17 07:02:21;;;;;;;26.15;16.20;;;14.00;99.90;;;;;;4739739;30;20218;-84
2021/05/17 07:04:47;;;;;;;21.45;15.70;;;14.10;99.90;;;;;;4767836;30;20208;-84
2021/05/17 07:07:22;;;;;;;20.88;15.63;;;14.20;99.90;;;;;;4770936;30;20247;-83
2021/05/17 07:12:32;;;;;;;22.90;13.73;;;14.60;99.90;;;;;;4764505;30;20259;-86
2021/05/17 07:15:01;;;;;;;19.98;14.65;;;14.80;99.90;;;;;;4753707;30;20515;-85
2021/05/17 07:17:27;;;;;;;18.10;14.02;;;;;;;;;;4754785;30;20264;-86
2021/05/17 07:19:53;;;;;;;17.60;13.82;;;15.10;99.90;;;;;;4770413;30;20190;-86
2021/05/17 07:25:05;;;;;;;17.23;12.07;;;15.30;99.90;;;;;;4770874;30;20201;-85
2021/05/17 07:27:30;;;;;;;15.55;12.00;;;15.50;99.90;;;;;;4740381;30;20221;-84
2021/05/17 07:29:56;;;;;;;17.42;11.77;;;15.60;99.90;;;;;;4754534;30;20236;-85
2021/05/17 07:32:23;;;;;;;18.10;13.15;;;15.60;99.90;;;;;;4754930;30;20286;-86
2021/05/17 07:34:48;;;;;;;15.20;12.23;;;15.70;99.90;;;;;;4757089;30;20193;-86
2021/05/17 07:37:16;;;;;;;12.82;10.55;;;15.70;99.90;;;;;;4760919;30;20198;-88
2021/05/17 07:39:41;;;;;;;12.98;10.85;;;15.60;99.90;;;;;;4742934;30;20217;-85
2021/05/17 07:42:09;;;;;;;13.35;10.80;;;;;;;;;;4754541;30;20683;-85
2021/05/17 07:44:35;;;;;;;13.15;11.15;;;15.60;99.90;;;;;;4770429;30;20273;-85
2021/05/17 07:47:01;;;;;;;15.48;12.80;;;;;;;;;;4752704;30;20304;-88
2021/05/17 07:49:52;;;;;;;13.25;10.52;;;15.90;99.90;;;;;;4752921;30;20194;-86
2021/05/17 07:52:18;;;;;;;12.98;10.63;;;16.10;99.90;;;;;;4752286;30;20266;-85
2021/05/17 07:54:44;;;;;;;14.98;10.60;;;16.20;99.90;;;;;;4770105;30;20620;-85
2021/05/17 07:57:10;;;;;;;14.93;11.73;;;;;;;;;;4740660;30;20193;-85
2021/05/17 07:59:36;;;;;;;16.85;12.73;;;16.50;99.90;;;;;;4771793;30;20269;-85
2021/05/17 08:02:02;;;;;;;15.38;11.93;;;;;;;;;;4773381;30;20344;-89
2021/05/17 08:04:28;;;;;;;15.57;12.07;;;16.60;99.90;;;;;;4774133;30;20190;-84
2021/05/17 08:06:53;;;;;;;14.35;11.15;;;16.80;99.90;;;;;;4757972;30;20185;-84
2021/05/17 08:09:20;;;;;;;12.43;10.55;;;;;;;;;;4775609;30;20190;-85
2021/05/17 08:11:46;;;;;;;12.35;10.85;;;16.70;99.90;;;;;;4757482;30;20216;-85
2021/05/17 08:14:13;;;;;;;14.63;10.95;;;16.80;99.90;;;;;;4757278;30;20228;-86
2021/05/17 08:16:38;;;;;;;14.82;11.55;;;17.00;99.90;;;;;;4773367;30;20190;-85
2021/05/17 08:19:04;;;;;;;15.80;10.32;;;17.20;99.90;;;;;;4773076;30;20332;-87
2021/05/17 08:21:30;;;;;;;10.75;9.50;;;17.00;99.90;;;;;;4773498;30;20232;-85
2021/05/17 08:23:57;;;;;;;16.13;11.85;;;17.10;99.90;;;;;;4773231;30;20278;-85
2021/05/17 08:26:25;;;;;;;12.85;9.18;;;17.40;99.90;;;;;;4757242;30;20825;-85
2021/05/17 08:28:51;;;;;;;10.52;8.50;;;17.50;99.90;;;;;;4773445;30;20193;-85
2021/05/17 08:31:20;;;;;;;8.35;6.32;;;17.50;99.90;;;;;;4757170;30;20656;-85
2021/05/17 08:33:48;;;;;;;11.45;6.95;;;17.80;99.90;;;;;;4757556;30;20656;-83
2021/05/17 08:36:14;;;;;;;13.23;7.65;;;18.00;99.90;;;;;;4757191;30;20221;-84
2021/05/17 08:38:40;;;;;;;8.25;5.88;;;19.00;99.90;;;;;;4773397;30;20182;-84
2021/05/17 08:41:06;;;;;;;8.18;6.38;;;18.20;99.90;;;;;;4742476;30;20194;-92
2021/05/17 08:43:36;;;;;;;7.10;6.22;;;18.70;99.90;;;;;;4742643;30;20684;-85
2021/05/17 08:46:02;;;;;;;7.32;6.20;;;18.40;99.90;;;;;;4773156;30;20194;-84
2021/05/17 08:48:28;;;;;;;6.80;5.75;;;18.50;99.90;;;;;;4773053;30;20182;-84
2021/05/17 08:50:54;;;;;;;6.45;5.22;;;18.50;99.90;;;;;;4742394;30;20223;-84
2021/05/17 08:53:19;;;;;;;7.20;5.03;;;18.70;99.90;;;;;;4757009;30;20247;-84
2021/05/17 08:55:45;;;;;;;6.43;5.20;;;18.70;99.90;;;;;;4773050;30;20186;-84
2021/05/17 08:58:11;;;;;;;4.90;4.00;;;18.20;99.90;;;;;;4772725;30;20254;-84
2021/05/17 09:00:36;;;;;;;9.15;4.80;;;18.40;99.90;;;;;;4756630;30;20690;-84
2021/05/17 09:03:03;;;;;;;6.32;3.88;;;18.30;99.90;;;;;;4756979;30;20274;-83
2021/05/17 09:05:32;;;;;;;4.50;4.00;;;18.40;99.90;;;;;;4772620;30;20630;-84
2021/05/17 09:08:01;;;;;;;7.25;4.68;;;18.60;99.90;;;;;;4757168;30;20224;-83
2021/05/17 09:10:35;;;;;;;4.57;4.05;;;18.70;99.90;;;;;;4756953;30;20193;-83
2021/05/17 09:13:10;;;;;;;5.70;4.05;;;18.80;99.90;;;;;;4756421;30;20241;-85
2021/05/17 09:15:50;;;;;;;5.07;3.28;;;18.30;99.90;;;;;;4772799;30;20659;-85
2021/05/17 09:18:27;;;;;;;5.97;3.75;;;19.00;99.90;;;;;;4756212;30;20243;-84
2021/05/17 09:20:56;;;;;;;6.20;3.88;;;19.00;99.90;;;;;;4771316;30;20281;-85
2021/05/17 09:23:28;;;;;;;4.85;2.92;;;18.30;99.90;;;;;;4772224;30;20294;-84
2021/05/17 09:26:08;;;;;;;5.18;3.42;;;17.90;99.90;;;;;;4756700;30;20205;-84
2021/05/17 09:28:51;;;;;;;3.10;2.75;;;18.40;99.90;;;;;;4772378;30;20193;-86
2021/05/17 09:31:19;;;;;;;3.80;2.58;;;18.50;99.90;;;;;;4772301;30;20178;-84
2021/05/17 09:34:00;;;;;;;5.07;2.90;;;19.00;99.90;;;;;;4772606;30;20186;-85
2021/05/17 09:36:36;;;;;;;4.72;2.55;;;19.40;99.90;;;;;;4756533;30;20246;-84
2021/05/17 09:39:12;;;;;;;2.22;2.00;;;19.80;99.50;;;;;;4742735;30;20246;-86
2021/05/17 09:41:57;;;;;;;2.92;2.28;;;19.60;97.40;;;;;;4743619;30;20644;-86
2021/05/17 09:44:25;;;;;;;6.20;2.72;;;19.90;97.20;;;;;;4757706;30;20182;-86
2021/05/17 09:47:08;;;;;;;3.10;2.22;;;19.80;92.40;;;;;;4775211;30;20205;-85
2021/05/17 09:49:51;;;;;;;4.15;2.28;;;19.60;95.50;;;;;;4759030;30;20216;-85
2021/05/17 09:52:24;;;;;;;2.80;1.40;;;20.00;94.40;;;;;;4773750;30;20219;-84
2021/05/17 09:54:56;;;;;;;2.40;1.30;;;20.10;84.80;;;;;;4758183;30;20663;-85
2021/05/17 09:57:30;;;;;;;2.13;1.50;;;20.20;84.70;;;;;;4757118;30;20585;-85
2021/05/17 10:00:17;;;;;;;2.53;1.50;;;20.50;91.50;;;;;;4773088;30;20189;-86
2021/05/17 10:02:45;;;;;;;3.97;2.47;;;20.90;86.90;;;;;;4757787;30;20217;-85
2021/05/17 10:05:28;;;;;;;2.72;1.30;;;21.30;89.30;;;;;;4773318;30;20189;-86
2021/05/17 10:08:03;;;;;;;4.43;3.03;;;21.60;73.80;;;;;;4757264;30;20613;-88
2021/05/17 10:10:30;;;;;;;1.70;1.60;;;21.50;79.70;;;;;;4756050;30;20196;-85
2021/05/17 10:12:59;;;;;;;1.83;1.50;;;21.50;83.30;;;;;;4756005;30;20605;-85
2021/05/17 10:15:27;;;;;;;2.75;1.67;;;21.40;75.80;;;;;;4772974;30;20244;-87
2021/05/17 10:17:53;;;;;;;2.25;1.80;;;20.90;76.20;;;;;;4771508;30;20213;-87
2021/05/17 10:20:21;;;;;;;2.25;1.45;;;20.90;89.40;;;;;;4772343;30;20274;-86
2021/05/17 10:22:50;;;;;;;2.95;1.65;;;21.20;85.50;;;;;;4771684;30;20491;-86
2021/05/17 10:25:27;;;;;;;1.63;1.52;;;21.40;83.50;;;;;;4771910;30;20560;-86
2021/05/17 10:27:56;;;;;;;2.90;1.40;;;21.80;83.60;;;;;;4755554;30;20278;-87
2021/05/17 10:30:25;;;;;;;3.47;1.70;;;21.80;77.20;;;;;;4756016;30;20182;-84
2021/05/17 10:32:56;;;;;;;2.75;1.42;;;22.00;78.30;;;;;;4755170;30;20190;-86
2021/05/17 10:35:27;;;;;;;5.50;1.50;;;21.50;77.70;;;;;;4758112;30;20611;-88
2021/05/17 10:38:13;;;;;;;2.17;1.20;;;21.50;73.10;;;;;;4771856;30;20289;-88
2021/05/17 10:40:40;;;;;;;3.60;1.42;;;21.20;71.90;;;;;;4757028;30;20247;-87
2021/05/17 10:48:26;;;;;;;4.10;1.52;;;20.70;77.00;;;;;;4758827;30;20173;-85
2021/05/17 10:51:18;;;;;;;2.42;1.63;;;20.60;73.50;;;;;;4773120;30;20269;-86
2021/05/17 10:53:50;;;;;;;2.35;1.27;;;21.00;71.10;;;;;;4772356;30;20295;-87
2021/05/17 10:56:37;;;;;;;1.98;1.45;;;21.00;71.00;;;;;;4744379;30;20193;-85
2021/05/17 11:01:54;;;;;;;2.10;1.73;;;21.10;68.80;;;;;;4769176;30;20193;-89
2021/05/17 11:04:24;;;;;;;4.70;1.50;;;21.30;74.40;;;;;;4754261;30;20183;-86
2021/05/17 11:07:12;;;;;;;1.80;1.23;;;21.70;71.70;;;;;;4742043;30;20560;-85
2021/05/17 11:09:52;;;;;;;1.80;1.20;;;21.90;64.90;;;;;;4772356;30;20262;-88
2021/05/17 11:12:26;;;;;;;1.40;1.20;;;21.70;71.10;;;;;;4756267;30;20194;-87
2021/05/17 11:15:01;;;;;;;1.38;1.20;;;21.80;70.80;;;;;;4769838;30;20260;-86
2021/05/17 11:17:27;;;;;;;3.90;1.10;;;21.80;64.70;;;;;;4755637;30;20609;-86
2021/05/17 11:19:54;;;;;;;2.50;1.90;;;21.90;68.90;;;;;;4740717;30;20250;-86
2021/05/17 11:22:20;;;;;;;2.70;1.80;;;22.20;66.50;;;;;;4756458;30;20213;-85
2021/05/17 11:24:54;;;;;;;6.10;3.67;;;22.20;64.50;;;;;;4755747;30;20659;-86
2021/05/17 11:27:46;;;;;;;4.05;2.00;;;22.50;69.60;;;;;;4771645;30;20182;-85
2021/05/17 11:30:41;;;;;;;1.45;1.10;;;22.30;64.90;;;;;;4767763;30;20660;-86
2021/05/17 11:33:20;;;;;;;4.57;1.55;;;22.60;62.20;;;;;;4752923;30;20201;-87
2021/05/17 11:36:15;;;;;;;2.45;1.23;;;22.70;66.50;;;;;;4754034;30;20273;-87
2021/05/17 11:41:36;;;;;;;5.28;3.03;;;22.60;63.80;;;;;;4770059;30;20198;-87
2021/05/17 11:44:07;;;;;;;3.70;1.50;;;23.30;66.30;;;;;;4754207;30;20225;-85
2021/05/17 11:46:36;;;;;;;1.92;1.15;;;22.90;63.90;;;;;;4754872;30;20182;-88
2021/05/17 11:49:02;;;;;;;1.85;1.25;;;22.80;62.40;;;;;;4754513;30;20192;-86
2021/05/17 11:51:30;;;;;;;2.58;1.25;;;22.70;64.10;;;;;;4753890;30;20611;-87
2021/05/17 11:53:56;;;;;;;1.98;1.30;;;22.40;63.00;;;;;;4770911;30;20182;-87
2021/05/17 11:56:36;;;;;;;5.38;1.58;;;22.20;66.50;;;;;;4740882;30;20194;-86
2021/05/17 11:59:04;;;;;;;8.65;4.72;;;22.40;63.60;;;;;;4755972;30;20242;-86
2021/05/17 12:01:31;;;;;;;5.43;3.08;;;22.60;63.60;;;;;;4771594;30;20186;-85
2021/05/17 12:04:10;;;;;;;6.70;3.35;;;22.70;62.80;;;;;;4755757;30;20225;-85
2021/05/17 12:07:06;;;;;;;2.60;1.92;;;22.90;63.70;;;;;;4770621;30;20193;-86
2021/05/17 12:09:38;;;;;;;2.88;1.50;;;23.40;62.90;;;;;;4750024;30;20536;-86
2021/05/17 12:12:11;;;;;;;4.60;1.55;;;23.40;63.30;;;;;;4755433;30;20197;-86
2021/05/17 12:14:39;;;;;;;1.50;1.20;;;23.50;61.80;;;;;;4755419;30;20216;-87
2021/05/17 12:17:07;;;;;;;3.45;1.40;;;23.40;60.20;;;;;;4771675;30;20182;-86
2021/05/17 12:19:33;;;;;;;11.02;1.92;;;23.40;60.70;;;;;;4757137;30;20258;-85
2021/05/17 12:22:03;;;;;;;1.63;1.42;;;23.10;59.80;;;;;;4755651;30;20187;-87
2021/05/17 12:24:30;;;;;;;3.92;1.35;;;23.00;60.00;;;;;;4757227;30;20559;-86
2021/05/17 12:27:02;;;;;;;7.07;3.75;;;22.50;59.60;;;;;;4754054;30;20680;-85
2021/05/17 12:29:47;;;;;;;3.90;1.98;;;22.20;62.20;;;;;;4754436;30;20187;-86
2021/05/17 12:32:13;;;;;;;4.85;1.63;;;21.90;62.90;;;;;;4752444;30;20190;-87
2021/05/17 12:38:05;;;;;;;5.07;1.58;;;21.40;61.80;;;;;;4752113;30;20232;-84
2021/05/17 12:40:31;;;;;;;7.53;2.63;;;21.10;62.60;;;;;;4752899;30;20177;-87
2021/05/17 12:43:36;;;;;;;14.32;2.45;;;21.10;64.60;;;;;;4741127;30;20722;-86
2021/05/17 12:46:05;;;;;;;3.72;2.15;;;21.10;66.70;;;;;;4724683;30;20209;-87
2021/05/17 12:48:43;;;;;;;3.90;1.65;;;21.10;64.20;;;;;;4741199;30;20289;-86
2021/05/17 12:51:29;;;;;;;3.63;2.33;;;21.00;64.20;;;;;;4740224;30;20198;-89
2021/05/17 12:54:16;;;;;;;2.10;1.50;;;20.90;64.00;;;;;;4754018;30;20199;-87
2021/05/17 12:57:19;;;;;;;3.47;1.67;;;21.20;68.30;;;;;;4754518;30;20657;-86
2021/05/17 12:59:45;;;;;;;2.53;1.63;;;20.90;65.60;;;;;;4739203;30;20289;-86
2021/05/17 13:02:12;;;;;;;1.95;1.58;;;21.10;66.70;;;;;;4724878;30;20329;-87
2021/05/17 13:04:38;;;;;;;1.50;1.40;;;21.30;64.50;;;;;;4753756;30;20201;-85
2021/05/17 13:07:06;;;;;;;3.00;1.70;;;21.00;67.40;;;;;;4754566;30;20272;-84
2021/05/17 13:09:33;;;;;;;4.10;1.98;;;21.40;65.20;;;;;;4757025;30;20196;-85
2021/05/17 13:12:00;;;;;;;7.10;1.60;;;21.40;64.40;;;;;;4759509;30;20187;-85
2021/05/17 13:14:55;;;;;;;6.10;1.42;;;21.30;63.60;;;;;;4758316;30;20568;-88
2021/05/17 13:17:21;;;;;;;3.53;1.70;;;21.20;63.30;;;;;;4755990;30;20198;-87
2021/05/17 13:38:15;;;;;;;1.63;1.20;;;21.20;60.00;;;;;;4755457;30;20643;-87
2021/05/17 13:40:41;;;;;;;3.50;1.25;;;20.80;65.20;;;;;;4742610;30;20696;-87
2021/05/17 13:43:06;;;;;;;2.72;1.60;;;21.00;62.70;;;;;;4753363;30;20218;-87
2021/05/17 13:45:32;;;;;;;2.90;1.75;;;;;;;;;;4738529;30;20736;-87
2021/05/17 13:48:11;;;;;;;3.45;1.50;;;21.10;61.90;;;;;;4738763;30;20206;-86
2021/05/17 13:54:19;;;;;;;2.60;1.92;;;21.50;60.40;;;;;;4753783;30;20220;-87